Time;durP1;ratioP1;P1;durP2;ratioP2;P2;SDS_P1;SDS_P2;PMS_P1;PMS_P2;Temp;Humidity;BMP_temperature;BMP_pressure;BME280_temperature;BME280_humidity;BME280_pressure;Samples;Min_cycle;Max_cycle;Signal;HPM_P1;HPM_P2
2021/10/23 00:00:48;;;;;;;20.23;3.60;;;;;;;;;;5094972;28;20040;-77
2021/10/23 00:03:13;;;;;;;10.77;3.65;;;;;;;;;;5095286;28;20063;-78
2021/10/23 00:05:39;;;;;;;9.35;2.72;;;;;;;;;;5095079;28;20081;-77
2021/10/23 00:08:05;;;;;;;13.38;2.83;;;;;;;;;;5094605;28;20086;-77
2021/10/23 00:10:30;;;;;;;12.13;2.85;;;;;;;;;;5094943;28;20032;-77
2021/10/23 00:12:56;;;;;;;8.30;2.95;;;;;;;;;;5094886;28;20043;-77
2021/10/23 00:15:21;;;;;;;17.48;3.10;;;;;;;;;;5094808;28;20067;-77
2021/10/23 00:17:47;;;;;;;17.50;2.85;;;;;;;;;;5092101;28;20043;-78
2021/10/23 00:20:13;;;;;;;15.15;3.42;;;;;;;;;;5094620;28;20032;-77
2021/10/23 00:22:38;;;;;;;15.68;3.35;;;;;;;;;;5094812;28;20036;-77
2021/10/23 00:25:04;;;;;;;9.95;2.72;;;;;;;;;;5094399;28;20024;-77
2021/10/23 00:27:30;;;;;;;10.63;3.72;;;;;;;;;;5093315;28;20478;-78
2021/10/23 00:29:55;;;;;;;9.57;2.88;;;;;;;;;;5093294;28;20086;-77
2021/10/23 00:32:21;;;;;;;20.02;4.45;;;;;;;;;;5094567;28;20043;-77
2021/10/23 00:34:46;;;;;;;9.82;3.55;;;;;;;;;;5094391;28;20028;-77
2021/10/23 00:37:12;;;;;;;12.15;3.33;;;;;;;;;;5094731;28;20054;-77
2021/10/23 00:39:38;;;;;;;19.20;4.90;;;;;;;;;;5093360;28;20055;-77
2021/10/23 00:42:03;;;;;;;23.05;4.03;;;;;;;;;;5094661;28;20396;-77
2021/10/23 00:44:38;;;;;;;22.25;4.47;;;;;;;;;;5094273;28;20043;-77
2021/10/23 00:47:09;;;;;;;13.07;4.50;;;;;;;;;;5074291;28;20040;-77
2021/10/23 00:49:36;;;;;;;18.25;4.85;;;;;;;;;;5072520;28;20482;-77
2021/10/23 00:52:03;;;;;;;26.23;4.88;;;;;;;;;;5085266;28;20035;-77
2021/10/23 00:54:30;;;;;;;30.60;7.85;;;;;;;;;;5093612;28;20068;-77
2021/10/23 00:56:57;;;;;;;25.60;5.40;;;;;;;;;;5094182;28;20073;-77
2021/10/23 00:59:22;;;;;;;22.75;5.72;;;;;;;;;;5094250;28;20089;-77
2021/10/23 01:01:48;;;;;;;30.88;5.65;;;;;;;;;;5095894;28;20032;-77
2021/10/23 01:04:14;;;;;;;24.65;5.70;;;;;;;;;;5093689;28;20171;-78
2021/10/23 01:06:40;;;;;;;21.75;4.78;;;;;;;;;;5094073;28;20119;-77
2021/10/23 01:09:06;;;;;;;19.13;5.68;;;;;;;;;;5094372;28;20090;-77
2021/10/23 01:11:32;;;;;;;11.80;4.88;;;;;;;;;;5094011;28;20032;-77
2021/10/23 01:13:58;;;;;;;21.67;5.85;;;;;;;;;;5094118;28;20067;-78
2021/10/23 01:16:24;;;;;;;17.70;4.68;;;;;;;;;;5093245;28;20168;-77
2021/10/23 01:18:49;;;;;;;20.88;4.28;;;;;;;;;;5093593;28;20468;-77
2021/10/23 01:21:23;;;;;;;19.20;4.18;;;;;;;;;;5094250;28;20412;-77
2021/10/23 01:23:49;;;;;;;16.58;4.85;;;;;;;;;;5092779;28;20119;-77
2021/10/23 01:26:17;;;;;;;17.77;5.30;;;;;;;;;;5094236;28;20039;-77
2021/10/23 01:28:42;;;;;;;15.18;4.03;;;;;;;;;;5093890;28;20043;-78
2021/10/23 01:31:07;;;;;;;16.95;4.13;;;;;;;;;;5094065;28;20039;-77
2021/10/23 01:33:33;;;;;;;19.40;5.40;;;;;;;;;;5094111;28;20032;-77
2021/10/23 01:36:17;;;;;;;24.17;5.22;;;;;;;;;;5094168;28;20039;-77
2021/10/23 01:38:43;;;;;;;18.13;4.70;;;;;;;;;;5093350;28;20047;-77
2021/10/23 01:41:10;;;;;;;15.07;4.72;;;;;;;;;;5093695;28;20131;-77
2021/10/23 01:43:36;;;;;;;15.50;4.82;;;;;;;;;;5093925;28;20036;-77
2021/10/23 01:46:02;;;;;;;24.27;5.18;;;;;;;;;;5093831;28;20119;-77
2021/10/23 01:48:30;;;;;;;19.60;4.97;;;;;;;;;;5094000;28;20032;-77
2021/10/23 01:50:55;;;;;;;23.45;4.80;;;;;;;;;;5094154;28;20072;-77
2021/10/23 01:53:22;;;;;;;23.88;5.70;;;;;;;;;;5093488;28;20410;-78
2021/10/23 01:55:47;;;;;;;16.77;4.75;;;;;;;;;;5093695;28;20113;-78
2021/10/23 01:58:16;;;;;;;26.75;5.57;;;;;;;;;;5093487;28;20040;-78
2021/10/23 02:00:41;;;;;;;20.10;5.40;;;;;;;;;;5093148;28;20032;-78
2021/10/23 02:03:06;;;;;;;23.02;5.47;;;;;;;;;;5093758;28;20042;-78
2021/10/23 02:05:32;;;;;;;26.08;4.40;;;;;;;;;;5095426;28;20070;-77
2021/10/23 02:07:57;;;;;;;20.55;4.45;;;;;;;;;;5097212;28;20036;-78
2021/10/23 02:10:23;;;;;;;30.15;5.15;;;;;;;;;;5097593;28;20173;-77
2021/10/23 02:12:48;;;;;;;22.27;4.80;;;;;;;;;;5097498;28;20024;-77
2021/10/23 02:15:14;;;;;;;25.27;5.82;;;;;;;;;;5097179;28;20036;-77
2021/10/23 02:17:39;;;;;;;15.93;4.55;;;;;;;;;;5097321;28;20127;-77
2021/10/23 02:20:07;;;;;;;19.63;4.68;;;;;;;;;;5094466;28;20047;-77
2021/10/23 02:22:33;;;;;;;29.92;4.95;;;;;;;;;;5096863;28;20061;-77
2021/10/23 02:24:58;;;;;;;20.42;6.18;;;;;;;;;;5097136;28;20115;-77
2021/10/23 02:27:24;;;;;;;18.70;4.53;;;;;;;;;;5097276;28;20036;-77
2021/10/23 02:29:49;;;;;;;22.15;4.68;;;;;;;;;;5097304;28;20046;-77
2021/10/23 02:32:15;;;;;;;28.23;5.15;;;;;;;;;;5097076;28;20097;-77
2021/10/23 02:34:41;;;;;;;22.40;4.55;;;;;;;;;;5096788;28;20032;-77
2021/10/23 02:37:06;;;;;;;25.42;5.00;;;;;;;;;;5096529;28;20012;-78
2021/10/23 02:39:32;;;;;;;26.45;5.50;;;;;;;;;;5096615;28;20056;-77
2021/10/23 02:41:57;;;;;;;17.73;4.88;;;;;;;;;;5096648;28;20071;-77
2021/10/23 02:44:23;;;;;;;30.50;7.20;;;;;;;;;;5097231;28;20047;-77
2021/10/23 02:46:48;;;;;;;17.92;4.45;;;;;;;;;;5096580;28;20044;-77
2021/10/23 02:49:14;;;;;;;29.40;5.97;;;;;;;;;;5096420;28;20440;-77
2021/10/23 02:51:39;;;;;;;17.85;4.20;;;;;;;;;;5075935;28;20031;-77
2021/10/23 02:54:04;;;;;;;19.98;5.25;;;;;;;;;;5076377;28;20047;-77
2021/10/23 02:56:31;;;;;;;22.55;4.55;;;;;;;;;;5076425;28;20465;-77
2021/10/23 02:58:56;;;;;;;19.25;5.10;;;;;;;;;;5076239;28;20040;-77
2021/10/23 03:01:22;;;;;;;19.05;4.22;;;;;;;;;;5096055;28;20040;-77
2021/10/23 03:03:48;;;;;;;21.42;4.60;;;;;;;;;;5096772;28;20047;-77
2021/10/23 03:06:17;;;;;;;26.88;4.55;;;;;;;;;;5096822;28;20040;-77
2021/10/23 03:08:43;;;;;;;14.85;4.32;;;;;;;;;;5096276;28;20035;-77
2021/10/23 03:11:09;;;;;;;21.45;4.45;;;;;;;;;;5096440;28;20416;-77
2021/10/23 03:13:35;;;;;;;18.77;4.68;;;;;;;;;;5095715;28;20039;-78
2021/10/23 03:16:01;;;;;;;15.77;4.70;;;;;;;;;;5095957;28;20067;-77
2021/10/23 03:18:26;;;;;;;23.67;4.85;;;;;;;;;;5095336;28;20087;-78
2021/10/23 03:20:54;;;;;;;13.32;4.22;;;;;;;;;;5096034;28;20032;-78
2021/10/23 03:23:19;;;;;;;13.38;3.38;;;;;;;;;;5094924;28;20476;-78
2021/10/23 03:25:45;;;;;;;12.98;4.13;;;;;;;;;;5094661;28;20124;-77
2021/10/23 03:28:12;;;;;;;12.38;3.47;;;;;;;;;;5095823;28;20123;-78
2021/10/23 03:30:37;;;;;;;17.35;5.70;;;;;;;;;;5095862;28;20046;-77
2021/10/23 03:33:03;;;;;;;14.93;4.45;;;;;;;;;;5095697;28;20036;-78
2021/10/23 03:35:29;;;;;;;21.15;5.00;;;;;;;;;;5095536;28;20032;-78
2021/10/23 03:37:54;;;;;;;21.50;4.93;;;;;;;;;;5095521;28;20505;-77
2021/10/23 03:40:19;;;;;;;15.65;4.05;;;;;;;;;;5095427;28;20052;-77
2021/10/23 03:42:45;;;;;;;20.77;4.10;;;;;;;;;;5094773;28;20024;-77
2021/10/23 03:45:13;;;;;;;9.88;3.67;;;;;;;;;;5095235;28;20375;-77
2021/10/23 03:47:38;;;;;;;17.92;5.00;;;;;;;;;;5095404;28;20024;-77
2021/10/23 03:50:04;;;;;;;20.23;4.70;;;;;;;;;;5095291;28;20101;-77
2021/10/23 03:52:30;;;;;;;18.52;4.32;;;;;;;;;;5095354;28;20401;-77
2021/10/23 03:54:56;;;;;;;16.02;4.40;;;;;;;;;;5094312;28;20094;-77
2021/10/23 03:57:21;;;;;;;20.52;5.05;;;;;;;;;;5095506;28;20032;-77
2021/10/23 03:59:47;;;;;;;19.52;5.55;;;;;;;;;;5094874;28;20032;-77
2021/10/23 04:02:13;;;;;;;26.08;6.68;;;;;;;;;;5095020;28;20031;-78
2021/10/23 04:04:38;;;;;;;18.98;5.40;;;;;;;;;;5095211;28;20088;-77
2021/10/23 04:07:03;;;;;;;24.70;6.05;;;;;;;;;;5095067;28;20123;-77
2021/10/23 04:09:29;;;;;;;25.90;6.40;;;;;;;;;;5095064;28;20047;-77
2021/10/23 04:11:56;;;;;;;22.20;5.70;;;;;;;;;;5094691;28;20032;-77
2021/10/23 04:14:23;;;;;;;21.90;5.63;;;;;;;;;;5094373;28;20040;-77
2021/10/23 04:16:48;;;;;;;20.05;5.65;;;;;;;;;;5094841;28;20032;-77
2021/10/23 04:19:14;;;;;;;20.13;5.55;;;;;;;;;;5094652;28;20059;-77
2021/10/23 04:21:39;;;;;;;25.45;5.43;;;;;;;;;;5094658;28;20119;-77
2021/10/23 04:24:05;;;;;;;23.15;5.20;;;;;;;;;;5092681;28;20124;-77
2021/10/23 04:26:30;;;;;;;19.05;4.93;;;;;;;;;;5094876;28;20373;-77
2021/10/23 04:28:57;;;;;;;21.95;5.38;;;;;;;;;;5094865;28;20031;-77
2021/10/23 04:31:22;;;;;;;16.08;5.72;;;;;;;;;;5094650;28;20039;-77
2021/10/23 04:33:48;;;;;;;19.15;5.55;;;;;;;;;;5094163;28;20047;-77
2021/10/23 04:36:13;;;;;;;21.88;6.57;;;;;;;;;;5093461;28;20035;-78
2021/10/23 04:38:39;;;;;;;22.75;5.82;;;;;;;;;;5094528;28;20046;-78
2021/10/23 04:41:05;;;;;;;20.85;5.85;;;;;;;;;;5094766;28;20139;-77
2021/10/23 04:43:30;;;;;;;23.65;5.78;;;;;;;;;;5093173;28;20032;-77
2021/10/23 04:45:56;;;;;;;15.23;5.35;;;;;;;;;;5094496;28;20043;-77
2021/10/23 04:48:21;;;;;;;16.85;5.25;;;;;;;;;;5094511;28;20039;-77
2021/10/23 04:50:46;;;;;;;16.75;4.68;;;;;;;;;;5094254;28;20028;-77
2021/10/23 04:53:12;;;;;;;18.58;5.25;;;;;;;;;;5094360;28;20395;-77
2021/10/23 04:55:37;;;;;;;21.75;5.40;;;;;;;;;;5093409;28;20063;-77
2021/10/23 04:58:03;;;;;;;15.32;5.10;;;;;;;;;;5094536;28;20082;-77
2021/10/23 05:00:28;;;;;;;15.98;6.18;;;;;;;;;;5092935;28;20085;-77
2021/10/23 05:02:54;;;;;;;17.02;4.97;;;;;;;;;;5094134;28;20070;-77
2021/10/23 05:05:20;;;;;;;17.38;6.85;;;;;;;;;;5094142;28;20040;-77
2021/10/23 05:07:45;;;;;;;21.95;5.90;;;;;;;;;;5094107;28;20076;-77
2021/10/23 05:10:13;;;;;;;12.00;5.35;;;;;;;;;;5094474;28;20378;-77
2021/10/23 05:12:38;;;;;;;17.60;4.72;;;;;;;;;;5093545;28;20028;-77
2021/10/23 05:15:05;;;;;;;14.05;4.65;;;;;;;;;;5093515;28;20484;-77
2021/10/23 05:17:30;;;;;;;14.82;4.93;;;;;;;;;;5093037;28;20032;-77
2021/10/23 05:19:55;;;;;;;17.67;5.55;;;;;;;;;;5093628;28;20036;-78
2021/10/23 05:22:21;;;;;;;25.33;5.85;;;;;;;;;;5093611;28;20036;-78
2021/10/23 05:24:47;;;;;;;24.83;5.97;;;;;;;;;;5092433;28;20024;-78
2021/10/23 05:27:13;;;;;;;21.80;6.97;;;;;;;;;;5093960;28;20381;-77
2021/10/23 05:29:38;;;;;;;22.17;5.72;;;;;;;;;;5093750;28;20111;-77
2021/10/23 05:32:04;;;;;;;19.40;5.60;;;;;;;;;;5093592;28;20044;-78
2021/10/23 05:34:29;;;;;;;22.98;6.07;;;;;;;;;;5093846;28;20119;-77
2021/10/23 05:36:55;;;;;;;19.83;6.18;;;;;;;;;;5093957;28;20047;-77
2021/10/23 05:39:20;;;;;;;17.05;5.65;;;;;;;;;;5093492;28;20074;-77
2021/10/23 05:41:45;;;;;;;35.38;6.68;;;;;;;;;;5097618;28;20039;-77
2021/10/23 05:44:11;;;;;;;15.45;5.63;;;;;;;;;;5097606;28;20039;-78
2021/10/23 05:46:36;;;;;;;18.05;5.43;;;;;;;;;;5097890;28;20044;-77
2021/10/23 05:49:06;;;;;;;19.40;5.75;;;;;;;;;;5096092;28;20047;-78
2021/10/23 05:51:32;;;;;;;16.98;5.70;;;;;;;;;;5097415;28;20461;-77
2021/10/23 05:53:57;;;;;;;11.85;4.75;;;;;;;;;;5097259;28;20032;-77
2021/10/23 05:56:22;;;;;;;10.93;4.40;;;;;;;;;;5097724;28;20093;-77
2021/10/23 05:58:48;;;;;;;12.23;5.47;;;;;;;;;;5097323;28;20040;-77
2021/10/23 06:01:13;;;;;;;15.13;5.30;;;;;;;;;;5097454;28;20077;-77
2021/10/23 06:03:39;;;;;;;13.77;5.82;;;;;;;;;;5097003;28;20048;-77
2021/10/23 06:06:08;;;;;;;13.88;5.50;;;;;;;;;;5097345;28;20043;-77
2021/10/23 06:08:34;;;;;;;17.08;5.10;;;;;;;;;;5096578;28;20063;-77
2021/10/23 06:11:00;;;;;;;18.27;5.05;;;;;;;;;;5095925;28;20544;-77
2021/10/23 06:13:26;;;;;;;19.80;6.20;;;;;;;;;;5097181;28;20024;-78
2021/10/23 06:15:51;;;;;;;19.90;6.15;;;;;;;;;;5096745;28;20486;-78
2021/10/23 06:18:17;;;;;;;16.52;5.55;;;;;;;;;;5098159;28;20016;-77
2021/10/23 06:20:44;;;;;;;21.73;7.15;;;;;;;;;;5098802;28;20032;-78
2021/10/23 06:23:10;;;;;;;11.27;4.95;;;;;;;;;;5097936;28;20075;-78
2021/10/23 06:25:35;;;;;;;12.95;3.92;;;;;;;;;;5097239;28;20063;-77
2021/10/23 06:28:00;;;;;;;14.32;4.28;;;;;;;;;;5098164;28;20137;-79
2021/10/23 06:30:26;;;;;;;14.35;5.05;;;;;;;;;;5097719;28;20046;-77
2021/10/23 06:32:54;;;;;;;28.20;6.20;;;;;;;;;;5098896;28;20040;-78
2021/10/23 06:35:20;;;;;;;17.70;5.85;;;;;;;;;;5098808;28;20124;-80
2021/10/23 06:37:46;;;;;;;18.42;6.53;;;;;;;;;;5098514;28;20040;-78
2021/10/23 06:40:12;;;;;;;15.45;7.03;;;;;;;;;;5094906;28;20058;-78
2021/10/23 06:42:39;;;;;;;12.18;6.68;;;;;;;;;;5098409;28;20119;-80
2021/10/23 06:45:08;;;;;;;18.20;6.55;;;;;;;;;;5097856;28;20077;-79
2021/10/23 06:47:38;;;;;;;21.00;8.10;;;;;;;;;;5098715;28;20105;-81
2021/10/23 06:50:05;;;;;;;14.63;6.20;;;;;;;;;;5099305;28;20040;-82
2021/10/23 06:52:31;;;;;;;13.00;4.85;;;;;;;;;;5097994;28;20118;-82
2021/10/23 06:54:56;;;;;;;14.52;5.65;;;;;;;;;;5098242;28;20496;-79
2021/10/23 06:57:22;;;;;;;16.80;5.28;;;;;;;;;;5098735;28;20397;-80
2021/10/23 06:59:47;;;;;;;15.82;5.72;;;;;;;;;;5098481;28;20054;-80
2021/10/23 07:02:13;;;;;;;18.23;6.85;;;;;;;;;;5098277;28;20054;-80
2021/10/23 07:04:38;;;;;;;16.15;7.13;;;;;;;;;;5098852;28;20043;-80
2021/10/23 07:07:04;;;;;;;17.35;6.60;;;;;;;;;;5081663;28;20036;-80
2021/10/23 07:09:30;;;;;;;17.38;6.03;;;;;;;;;;5078923;28;20107;-78
2021/10/23 07:11:55;;;;;;;18.38;4.97;;;;;;;;;;5079506;28;20044;-80
2021/10/23 07:14:20;;;;;;;13.20;5.78;;;;;;;;;;5084209;28;20039;-79
2021/10/23 07:16:47;;;;;;;17.52;6.05;;;;;;;;;;5077248;28;20035;-78
2021/10/23 07:19:12;;;;;;;16.33;6.07;;;;;;;;;;5075764;28;20047;-77
2021/10/23 07:21:38;;;;;;;21.83;6.75;;;;;;;;;;5076323;28;20036;-78
2021/10/23 07:24:03;;;;;;;18.98;7.38;;;;;;;;;;5074904;28;20040;-77
2021/10/23 07:26:29;;;;;;;19.25;6.78;;;;;;;;;;5074887;28;20036;-77
2021/10/23 07:28:54;;;;;;;12.23;5.85;;;;;;;;;;5074923;28;20482;-76
2021/10/23 07:31:20;;;;;;;28.55;15.18;;;;;;;;;;5076168;28;20072;-78
2021/10/23 07:33:45;;;;;;;14.57;6.55;;;;;;;;;;5076761;28;20062;-77
2021/10/23 07:36:13;;;;;;;19.92;7.20;;;;;;;;;;5076655;28;20043;-78
2021/10/23 07:38:39;;;;;;;15.02;6.38;;;;;;;;;;5080030;28;20440;-77
2021/10/23 07:41:04;;;;;;;18.08;6.13;;;;;;;;;;5093683;28;20060;-77
2021/10/23 07:43:30;;;;;;;17.92;5.95;;;;;;;;;;5093333;28;20111;-77
2021/10/23 07:45:55;;;;;;;15.75;5.88;;;;;;;;;;5095735;28;20038;-78
2021/10/23 07:48:20;;;;;;;16.83;6.65;;;;;;;;;;5097867;28;20501;-78
2021/10/23 07:50:47;;;;;;;15.55;7.18;;;;;;;;;;5097357;28;20032;-78
2021/10/23 07:53:12;;;;;;;22.00;6.43;;;;;;;;;;5094860;28;20102;-77
2021/10/23 07:55:38;;;;;;;14.43;8.05;;;;;;;;;;5095500;28;20569;-77
2021/10/23 07:58:04;;;;;;;21.60;7.57;;;;;;;;;;5095765;28;20535;-77
2021/10/23 08:00:29;;;;;;;20.10;8.65;;;;;;;;;;5095360;28;20401;-77
2021/10/23 08:02:59;;;;;;;22.50;8.38;;;;;;;;;;5095284;28;20051;-77
2021/10/23 08:05:26;;;;;;;15.45;7.57;;;;;;;;;;5094134;28;20054;-77
2021/10/23 08:07:53;;;;;;;16.60;7.47;;;;;;;;;;5093905;28;20032;-77
2021/10/23 08:10:20;;;;;;;16.25;7.13;;;;;;;;;;5094167;28;20032;-77
2021/10/23 08:12:46;;;;;;;18.73;6.70;;;;;;;;;;5097605;28;20131;-78
2021/10/23 08:15:12;;;;;;;19.50;7.43;;;;;;;;;;5100315;28;20068;-79
2021/10/23 08:17:38;;;;;;;25.13;8.75;;;;;;;;;;5099190;28;20032;-78
2021/10/23 08:20:08;;;;;;;22.40;9.70;;;;;;;;;;5096543;28;20132;-78
2021/10/23 08:22:34;;;;;;;24.23;11.00;;;;;;;;;;5096406;28;20032;-78
2021/10/23 08:25:03;;;;;;;25.80;10.73;;;;;;;;;;5095762;28;20035;-73
2021/10/23 08:27:30;;;;;;;18.95;6.65;;;;;;;;;;5094016;28;20040;-77
2021/10/23 08:29:55;;;;;;;20.40;6.28;;;;;;;;;;5097492;28;20032;-79
2021/10/23 08:32:21;;;;;;;23.48;6.80;;;;;;;;;;5094359;28;20047;-78
2021/10/23 08:34:46;;;;;;;20.23;6.13;;;;;;;;;;5098260;28;20041;-80
2021/10/23 08:37:13;;;;;;;17.75;7.75;;;;;;;;;;5098700;28;20104;-78
2021/10/23 08:39:38;;;;;;;15.98;6.82;;;;;;;;;;5095150;28;20079;-77
2021/10/23 08:42:04;;;;;;;21.40;7.10;;;;;;;;;;5096419;28;20067;-78
2021/10/23 08:44:31;;;;;;;22.02;8.10;;;;;;;;;;5096250;28;20039;-78
2021/10/23 08:46:57;;;;;;;18.15;7.47;;;;;;;;;;5102712;28;20036;-79
2021/10/23 08:49:23;;;;;;;16.00;6.70;;;;;;;;;;5104135;28;20028;-78
2021/10/23 08:51:49;;;;;;;18.75;6.45;;;;;;;;;;5102970;28;20047;-78
2021/10/23 08:54:15;;;;;;;14.77;5.88;;;;;;;;;;5103476;28;20047;-78
2021/10/23 08:56:41;;;;;;;16.48;6.03;;;;;;;;;;5103076;28;20028;-78
2021/10/23 08:59:07;;;;;;;23.75;7.45;;;;;;;;;;5103017;28;20032;-78
2021/10/23 09:01:32;;;;;;;18.73;8.38;;;;;;;;;;5102445;28;20039;-78
2021/10/23 09:03:58;;;;;;;26.40;9.18;;;;;;;;;;5098215;28;20036;-77
2021/10/23 09:06:31;;;;;;;24.00;7.47;;;;;;;;;;5096016;28;20048;-79
2021/10/23 09:08:58;;;;;;;26.05;8.38;;;;;;;;;;5095304;28;20044;-79
2021/10/23 09:11:28;;;;;;;21.60;7.60;;;;;;;;;;5095643;28;20055;-79
2021/10/23 09:13:53;;;;;;;19.40;7.80;;;;;;;;;;5095045;28;20414;-78
2021/10/23 09:16:19;;;;;;;17.45;7.22;;;;;;;;;;5095210;28;20071;-79
2021/10/23 09:18:45;;;;;;;18.92;7.13;;;;;;;;;;5095627;28;20058;-79
2021/10/23 09:21:22;;;;;;;17.02;8.10;;;;;;;;;;5094632;28;20036;-79
2021/10/23 09:23:48;;;;;;;25.65;7.93;;;;;;;;;;5096413;28;20382;-79
2021/10/23 09:26:29;;;;;;;20.70;6.78;;;;;;;;;;5096674;28;20051;-79
2021/10/23 09:29:24;;;;;;;22.88;6.95;;;;;;;;;;5095906;28;20485;-79
2021/10/23 09:31:54;;;;;;;17.55;6.00;;;;;;;;;;5095112;28;20134;-79
2021/10/23 09:34:22;;;;;;;22.17;6.75;;;;;;;;;;5094169;28;20531;-77
2021/10/23 09:36:51;;;;;;;17.27;6.20;;;;;;;;;;5093277;28;20450;-78
2021/10/23 09:39:27;;;;;;;25.92;6.00;;;;;;;;;;5095540;28;20036;-78
2021/10/23 09:42:17;;;;;;;19.27;5.95;;;;;;;;;;5094949;28;20043;-76
2021/10/23 09:45:02;;;;;;;21.83;6.13;;;;;;;;;;5095355;28;20036;-78
2021/10/23 09:47:39;;;;;;;24.90;6.30;;;;;;;;;;5093451;28;20470;-78
2021/10/23 09:50:05;;;;;;;18.35;6.43;;;;;;;;;;5093218;28;20489;-78
2021/10/23 09:52:34;;;;;;;19.95;5.95;;;;;;;;;;5109679;28;20431;-78
2021/10/23 09:55:09;;;;;;;25.88;6.65;;;;;;;;;;5115126;28;20043;-78
2021/10/23 09:57:34;;;;;;;25.77;7.32;;;;;;;;;;5115193;28;20067;-78
2021/10/23 10:00:08;;;;;;;16.75;6.30;;;;;;;;;;5115156;28;20067;-78
2021/10/23 10:02:40;;;;;;;20.88;6.57;;;;;;;;;;5115686;28;20036;-78
2021/10/23 10:05:05;;;;;;;18.55;6.70;;;;;;;;;;5113692;28;20031;-77
2021/10/23 10:07:34;;;;;;;15.98;5.97;;;;;;;;;;5113892;28;20062;-78
2021/10/23 10:10:00;;;;;;;18.73;6.10;;;;;;;;;;5097450;28;20043;-78
2021/10/23 10:12:29;;;;;;;21.05;6.43;;;;;;;;;;5092479;28;20382;-77
2021/10/23 10:14:54;;;;;;;28.00;6.25;;;;;;;;;;5093744;28;20494;-77
2021/10/23 10:17:21;;;;;;;14.70;5.32;;;;;;;;;;5093271;28;20028;-77
2021/10/23 10:19:49;;;;;;;14.95;5.00;;;;;;;;;;5093642;28;20083;-78
2021/10/23 10:22:15;;;;;;;23.10;6.40;;;;;;;;;;5093424;28;20439;-77
2021/10/23 10:24:41;;;;;;;25.80;6.78;;;;;;;;;;5093500;28;20114;-77
2021/10/23 10:27:11;;;;;;;19.88;6.68;;;;;;;;;;5095502;28;20182;-78
2021/10/23 10:29:42;;;;;;;23.38;7.28;;;;;;;;;;5097194;28;20034;-77
2021/10/23 10:32:26;;;;;;;20.98;7.18;;;;;;;;;;5096650;28;20091;-77
2021/10/23 10:38:08;;;;;;;19.27;6.10;;;;;;;;;;5096009;28;20131;-77
2021/10/23 10:40:58;;;;;;;19.23;6.50;;;;;;;;;;5096439;28;20105;-77
2021/10/23 10:43:24;;;;;;;18.80;7.35;;;;;;;;;;5096618;28;20036;-77
2021/10/23 10:45:53;;;;;;;17.45;6.90;;;;;;;;;;5096754;28;20040;-77
2021/10/23 10:48:29;;;;;;;20.17;5.57;;;;;;;;;;5096102;28;20489;-77
2021/10/23 10:51:04;;;;;;;14.38;5.70;;;;;;;;;;5096094;28;20032;-77
2021/10/23 10:53:34;;;;;;;21.25;6.55;;;;;;;;;;5096218;28;20113;-77
2021/10/23 10:56:03;;;;;;;23.52;7.60;;;;;;;;;;5095410;28;20036;-77
2021/10/23 10:58:58;;;;;;;23.00;6.00;;;;;;;;;;5095960;28;20032;-77
2021/10/23 11:01:30;;;;;;;27.73;5.85;;;;;;;;;;5095828;28;20032;-77
2021/10/23 11:03:59;;;;;;;18.65;5.25;;;;;;;;;;5096179;28;20035;-77
2021/10/23 11:11:54;;;;;;;18.73;5.43;;;;;;;;;;5096169;28;20068;-77
2021/10/23 11:14:33;;;;;;;20.23;5.40;;;;;;;;;;5096018;28;20440;-77
2021/10/23 11:17:14;;;;;;;22.98;5.85;;;;;;;;;;5096191;28;20063;-77
2021/10/23 11:19:42;;;;;;;20.70;4.65;;;;;;;;;;5095927;28;20097;-77
2021/10/23 11:22:12;;;;;;;18.08;5.05;;;;;;;;;;5096002;28;20046;-78
2021/10/23 11:24:46;;;;;;;18.15;5.65;;;;;;;;;;5095069;28;20036;-77
2021/10/23 11:27:43;;;;;;;20.77;5.43;;;;;;;;;;5096321;28;20032;-78
2021/10/23 11:30:25;;;;;;;14.38;4.30;;;;;;;;;;5096560;28;20032;-79
2021/10/23 11:33:02;;;;;;;13.43;4.75;;;;;;;;;;5096789;28;20107;-78
2021/10/23 11:35:31;;;;;;;14.45;4.65;;;;;;;;;;5097540;28;20113;-78
2021/10/23 11:37:56;;;;;;;19.45;5.28;;;;;;;;;;5096868;28;20093;-78
2021/10/23 11:40:22;;;;;;;16.35;5.13;;;;;;;;;;5097729;28;20044;-78
2021/10/23 11:42:50;;;;;;;18.77;4.40;;;;;;;;;;5097565;28;20036;-78
2021/10/23 11:45:20;;;;;;;16.95;4.18;;;;;;;;;;5097295;28;20040;-78
2021/10/23 11:47:46;;;;;;;17.52;4.85;;;;;;;;;;5096784;28;20067;-78
2021/10/23 11:50:25;;;;;;;18.38;4.63;;;;;;;;;;5096281;28;20365;-78
2021/10/23 11:52:58;;;;;;;18.83;4.18;;;;;;;;;;5095756;28;20114;-78
2021/10/23 11:55:39;;;;;;;15.32;3.88;;;;;;;;;;5096031;28;20040;-78
2021/10/23 11:58:08;;;;;;;16.02;3.90;;;;;;;;;;5096795;28;20051;-78
2021/10/23 12:00:40;;;;;;;13.27;3.75;;;;;;;;;;5096058;28;20062;-78
2021/10/23 12:03:08;;;;;;;14.40;4.05;;;;;;;;;;5096426;28;20457;-81
2021/10/23 12:05:38;;;;;;;12.38;3.85;;;;;;;;;;5095970;28;20043;-77
2021/10/23 12:08:28;;;;;;;15.00;3.47;;;;;;;;;;5094198;28;20131;-77
2021/10/23 12:11:14;;;;;;;13.35;4.03;;;;;;;;;;5094289;28;20043;-77
2021/10/23 12:14:01;;;;;;;14.60;3.58;;;;;;;;;;5094634;28;20036;-76
2021/10/23 12:16:47;;;;;;;17.00;3.97;;;;;;;;;;5094504;28;20071;-76
2021/10/23 12:19:17;;;;;;;8.70;2.70;;;;;;;;;;5092980;28;20481;-76
2021/10/23 12:21:42;;;;;;;11.32;2.67;;;;;;;;;;5094194;28;20032;-77
2021/10/23 12:24:19;;;;;;;13.63;2.05;;;;;;;;;;5092795;28;20535;-76
2021/10/23 12:27:01;;;;;;;16.73;2.55;;;;;;;;;;5095699;28;21918;-80
2021/10/23 12:29:38;;;;;;;14.00;2.47;;;;;;;;;;5095856;28;20113;-79
2021/10/23 12:32:10;;;;;;;8.20;2.35;;;;;;;;;;5095876;28;20042;-79
2021/10/23 12:34:50;;;;;;;11.93;2.40;;;;;;;;;;5097476;28;20086;-79
2021/10/23 12:37:25;;;;;;;11.23;3.75;;;;;;;;;;5096034;28;20042;-78
2021/10/23 12:40:00;;;;;;;6.93;2.25;;;;;;;;;;5096331;28;20138;-77
2021/10/23 12:42:26;;;;;;;11.65;2.42;;;;;;;;;;5093938;28;20028;-77
2021/10/23 12:44:51;;;;;;;14.63;2.78;;;;;;;;;;5094080;28;20028;-76
2021/10/23 12:47:16;;;;;;;8.13;2.35;;;;;;;;;;5093502;28;20032;-76
2021/10/23 12:49:42;;;;;;;12.45;3.10;;;;;;;;;;5092497;28;20538;-77
2021/10/23 12:52:07;;;;;;;11.70;2.10;;;;;;;;;;5091902;28;20039;-76
2021/10/23 12:54:33;;;;;;;6.55;2.20;;;;;;;;;;5090707;28;20039;-76
2021/10/23 12:56:58;;;;;;;13.52;2.75;;;;;;;;;;5092004;28;20040;-76
2021/10/23 12:59:23;;;;;;;9.48;3.30;;;;;;;;;;5092080;28;20122;-76
2021/10/23 13:01:49;;;;;;;9.77;3.53;;;;;;;;;;5091912;28;20067;-76
2021/10/23 13:04:14;;;;;;;8.02;2.42;;;;;;;;;;5091917;28;20040;-76
2021/10/23 13:06:41;;;;;;;8.93;1.98;;;;;;;;;;5091952;28;20036;-76
2021/10/23 13:09:07;;;;;;;8.65;2.10;;;;;;;;;;5092115;28;20039;-76
2021/10/23 13:11:33;;;;;;;8.25;2.40;;;;;;;;;;5093455;28;20028;-76
2021/10/23 13:13:59;;;;;;;7.88;2.35;;;;;;;;;;5092339;28;20036;-77
2021/10/23 13:16:25;;;;;;;10.23;2.72;;;;;;;;;;5092309;28;20467;-77
2021/10/23 13:18:51;;;;;;;14.43;2.50;;;;;;;;;;5093366;28;20115;-76
2021/10/23 13:21:16;;;;;;;9.43;2.22;;;;;;;;;;5093643;28;20162;-76
2021/10/23 13:23:42;;;;;;;12.05;2.88;;;;;;;;;;5093203;28;20058;-76
2021/10/23 13:26:08;;;;;;;9.93;2.28;;;;;;;;;;5092243;28;20347;-76
2021/10/23 13:28:33;;;;;;;6.25;2.58;;;;;;;;;;5093246;28;20036;-77
2021/10/23 13:30:59;;;;;;;9.13;2.30;;;;;;;;;;5093383;28;20044;-76
2021/10/23 13:33:24;;;;;;;6.00;2.08;;;;;;;;;;5093308;28;20074;-76
2021/10/23 13:35:50;;;;;;;5.70;2.28;;;;;;;;;;5093293;28;20123;-76
2021/10/23 13:38:15;;;;;;;7.20;2.45;;;;;;;;;;5093350;28;20060;-77
2021/10/23 13:40:41;;;;;;;13.57;3.67;;;;;;;;;;5092493;28;20056;-77
2021/10/23 13:43:07;;;;;;;9.13;2.70;;;;;;;;;;5092307;28;20052;-76
2021/10/23 13:45:32;;;;;;;10.45;2.33;;;;;;;;;;5093141;28;20040;-76
2021/10/23 13:48:00;;;;;;;9.82;2.15;;;;;;;;;;5093043;28;20039;-76
2021/10/23 13:50:25;;;;;;;12.45;2.58;;;;;;;;;;5093121;28;20365;-76
2021/10/23 13:52:51;;;;;;;8.80;2.83;;;;;;;;;;5093196;28;20032;-76
2021/10/23 13:55:16;;;;;;;8.98;2.72;;;;;;;;;;5091622;28;20085;-76
2021/10/23 13:57:42;;;;;;;9.55;2.80;;;;;;;;;;5092942;28;20047;-76
2021/10/23 14:00:08;;;;;;;12.98;2.47;;;;;;;;;;5091767;28;20028;-76
2021/10/23 14:02:34;;;;;;;7.75;2.58;;;;;;;;;;5096195;28;20466;-76
2021/10/23 14:05:01;;;;;;;13.93;2.45;;;;;;;;;;5096718;28;20046;-76
2021/10/23 14:07:26;;;;;;;9.10;2.97;;;;;;;;;;5096772;28;20521;-76
2021/10/23 14:09:51;;;;;;;11.13;2.70;;;;;;;;;;5095507;28;20115;-76
2021/10/23 14:12:18;;;;;;;9.20;3.03;;;;;;;;;;5096888;28;20478;-76
2021/10/23 14:14:44;;;;;;;11.75;3.17;;;;;;;;;;5096730;28;20446;-76
2021/10/23 14:17:09;;;;;;;16.50;3.20;;;;;;;;;;5096731;28;20445;-76
2021/10/23 14:19:35;;;;;;;9.35;3.63;;;;;;;;;;5096670;28;20039;-76
2021/10/23 14:22:02;;;;;;;13.50;3.33;;;;;;;;;;5095995;28;20038;-76
2021/10/23 14:24:29;;;;;;;13.30;3.63;;;;;;;;;;5094507;28;20468;-75
2021/10/23 14:26:57;;;;;;;11.95;4.05;;;;;;;;;;5096880;28;20398;-77
2021/10/23 14:29:23;;;;;;;15.40;4.10;;;;;;;;;;5097191;28;20044;-76
2021/10/23 14:31:48;;;;;;;11.57;3.90;;;;;;;;;;5096227;28;20042;-76
2021/10/23 14:34:13;;;;;;;13.52;4.38;;;;;;;;;;5096508;28;20067;-78
2021/10/23 14:36:39;;;;;;;13.02;4.70;;;;;;;;;;5096351;28;20040;-76
2021/10/23 14:39:04;;;;;;;16.73;4.35;;;;;;;;;;5095562;28;20023;-76
2021/10/23 14:41:30;;;;;;;17.02;4.03;;;;;;;;;;5096074;28;20046;-76